VGEG/CGP METAR and TAF weather

Enter ICAO airport designator
Station Type Date Time Source
VGEG METAR 2021/01/20 11:00 UTC NOAA

VGEG 201100Z 00000KT 3100 HZ SCT016 BKN100 23/16 Q1011 NOSIG


Station Type Date Time Source
VGEG Decoded METAR 2021/01/20 11:00 UTC NOAA

Chittagong Patenga , Bangladesh (VGEG) 22-16N 091-49E 6M
Jan 20, 2021 - 06:00 AM EST / 2021.01.20 1100 UTC
Wind: Calm:0
Visibility: 1 mile(s):0
Sky conditions: mostly cloudy
Weather: haze
Temperature: 73 F (23 C)
Dew Point: 60 F (16 C)
Relative Humidity: 64%
Pressure (altimeter): 29.85 in. Hg (1011 hPa)
ob: VGEG 201100Z 00000KT 3100 HZ SCT016 BKN100 23/16 Q1011 NOSIG
cycle: 11

Station Type Date Time Source
VGEG TAF 2021/01/20 18:51 UTC NOAA

TAF VGEG 201700Z 2018/2124 20004KT 3200 HZ SCT013 BKN100
TEMPO 2020/2103 03003KT 1500 BR/DZ SCT012 BKN100
BECMG 2106/2108 18007KT 3300 HZ SCT013 BKN100
BECMG 2112/2114 18005KT 3000 HZ SCT014
BECMG 2118/2120 03003KT 2500 HZ SCT014

Example: see airport list